sensor_id;sensor_type;location;lat;lon;timestamp;P1;durP1;ratioP1;P2;durP2;ratioP2
86137;SDS011;76796;49.056;15.810;2024-03-08T00:02:23;36.97;;;17.15;;
86137;SDS011;76796;49.056;15.810;2024-03-08T00:04:49;33.38;;;18.17;;
86137;SDS011;76796;49.056;15.810;2024-03-08T00:07:14;35.28;;;18.02;;
86137;SDS011;76796;49.056;15.810;2024-03-08T00:09:41;33.42;;;17.83;;
86137;SDS011;76796;49.056;15.810;2024-03-08T00:12:08;40.25;;;17.95;;
86137;SDS011;76796;49.056;15.810;2024-03-08T00:14:41;36.58;;;18.35;;
86137;SDS011;76796;49.056;15.810;2024-03-08T00:17:13;35.83;;;17.38;;
86137;SDS011;76796;49.056;15.810;2024-03-08T00:19:38;40.35;;;19.27;;
86137;SDS011;76796;49.056;15.810;2024-03-08T00:22:05;37.53;;;19.00;;
86137;SDS011;76796;49.056;15.810;2024-03-08T00:24:32;35.45;;;17.00;;
86137;SDS011;76796;49.056;15.810;2024-03-08T00:26:58;33.78;;;18.30;;
86137;SDS011;76796;49.056;15.810;2024-03-08T00:29:24;34.97;;;17.60;;
86137;SDS011;76796;49.056;15.810;2024-03-08T00:31:55;36.80;;;18.90;;
86137;SDS011;76796;49.056;15.810;2024-03-08T00:34:21;35.63;;;18.10;;
86137;SDS011;76796;49.056;15.810;2024-03-08T00:36:47;35.40;;;18.63;;
86137;SDS011;76796;49.056;15.810;2024-03-08T00:39:14;36.50;;;17.88;;
86137;SDS011;76796;49.056;15.810;2024-03-08T00:41:39;32.92;;;17.25;;
86137;SDS011;76796;49.056;15.810;2024-03-08T00:44:05;32.88;;;16.95;;
86137;SDS011;76796;49.056;15.810;2024-03-08T00:46:31;32.75;;;16.52;;
86137;SDS011;76796;49.056;15.810;2024-03-08T00:49:02;29.70;;;15.50;;
86137;SDS011;76796;49.056;15.810;2024-03-08T00:51:29;30.08;;;15.65;;
86137;SDS011;76796;49.056;15.810;2024-03-08T00:53:55;33.67;;;16.02;;
86137;SDS011;76796;49.056;15.810;2024-03-08T00:56:20;30.55;;;15.85;;
86137;SDS011;76796;49.056;15.810;2024-03-08T00:58:46;33.13;;;17.48;;
86137;SDS011;76796;49.056;15.810;2024-03-08T01:01:12;33.25;;;15.98;;
86137;SDS011;76796;49.056;15.810;2024-03-08T01:03:42;32.05;;;16.13;;
86137;SDS011;76796;49.056;15.810;2024-03-08T01:06:15;32.85;;;16.67;;
86137;SDS011;76796;49.056;15.810;2024-03-08T01:08:40;33.55;;;15.07;;
86137;SDS011;76796;49.056;15.810;2024-03-08T01:11:07;32.22;;;16.35;;
86137;SDS011;76796;49.056;15.810;2024-03-08T01:13:40;33.15;;;16.45;;
86137;SDS011;76796;49.056;15.810;2024-03-08T01:16:06;31.45;;;16.50;;
86137;SDS011;76796;49.056;15.810;2024-03-08T01:18:32;35.83;;;16.70;;
86137;SDS011;76796;49.056;15.810;2024-03-08T01:21:04;32.58;;;15.95;;
86137;SDS011;76796;49.056;15.810;2024-03-08T01:23:36;32.90;;;14.27;;
86137;SDS011;76796;49.056;15.810;2024-03-08T01:26:01;33.85;;;16.33;;
86137;SDS011;76796;49.056;15.810;2024-03-08T01:28:29;31.90;;;14.80;;
86137;SDS011;76796;49.056;15.810;2024-03-08T01:30:55;29.92;;;14.63;;
86137;SDS011;76796;49.056;15.810;2024-03-08T01:33:24;32.25;;;16.08;;
86137;SDS011;76796;49.056;15.810;2024-03-08T01:35:51;29.27;;;14.57;;
86137;SDS011;76796;49.056;15.810;2024-03-08T01:38:17;32.78;;;15.15;;
86137;SDS011;76796;49.056;15.810;2024-03-08T01:40:50;29.80;;;16.42;;
86137;SDS011;76796;49.056;15.810;2024-03-08T01:43:17;30.13;;;15.60;;
86137;SDS011;76796;49.056;15.810;2024-03-08T01:45:50;29.02;;;14.95;;
86137;SDS011;76796;49.056;15.810;2024-03-08T01:48:16;31.05;;;16.58;;
86137;SDS011;76796;49.056;15.810;2024-03-08T01:50:44;28.27;;;14.18;;
86137;SDS011;76796;49.056;15.810;2024-03-08T01:53:11;32.22;;;16.42;;
86137;SDS011;76796;49.056;15.810;2024-03-08T01:55:40;32.90;;;16.52;;
86137;SDS011;76796;49.056;15.810;2024-03-08T01:58:14;33.13;;;15.35;;
86137;SDS011;76796;49.056;15.810;2024-03-08T02:00:43;29.00;;;15.02;;
86137;SDS011;76796;49.056;15.810;2024-03-08T02:03:11;26.98;;;14.65;;
86137;SDS011;76796;49.056;15.810;2024-03-08T02:05:38;29.45;;;15.95;;
86137;SDS011;76796;49.056;15.810;2024-03-08T02:08:06;32.53;;;15.68;;
86137;SDS011;76796;49.056;15.810;2024-03-08T02:10:33;29.75;;;15.43;;
86137;SDS011;76796;49.056;15.810;2024-03-08T02:13:01;33.05;;;15.68;;
86137;SDS011;76796;49.056;15.810;2024-03-08T02:18:37;30.75;;;15.85;;
86137;SDS011;76796;49.056;15.810;2024-03-08T02:21:05;32.92;;;16.15;;
86137;SDS011;76796;49.056;15.810;2024-03-08T02:23:38;32.03;;;15.93;;
86137;SDS011;76796;49.056;15.810;2024-03-08T02:26:03;30.92;;;16.10;;
86137;SDS011;76796;49.056;15.810;2024-03-08T02:28:30;30.60;;;15.38;;
86137;SDS011;76796;49.056;15.810;2024-03-08T02:31:03;30.73;;;16.00;;
86137;SDS011;76796;49.056;15.810;2024-03-08T02:33:33;29.65;;;15.85;;
86137;SDS011;76796;49.056;15.810;2024-03-08T02:35:59;31.98;;;15.15;;
86137;SDS011;76796;49.056;15.810;2024-03-08T02:38:25;24.95;;;14.48;;
86137;SDS011;76796;49.056;15.810;2024-03-08T02:40:51;29.38;;;14.90;;
86137;SDS011;76796;49.056;15.810;2024-03-08T02:43:18;29.33;;;16.15;;
86137;SDS011;76796;49.056;15.810;2024-03-08T02:45:45;30.27;;;15.02;;
86137;SDS011;76796;49.056;15.810;2024-03-08T02:48:18;31.77;;;16.10;;
86137;SDS011;76796;49.056;15.810;2024-03-08T02:50:44;28.45;;;15.48;;
86137;SDS011;76796;49.056;15.810;2024-03-08T02:53:11;34.33;;;16.80;;
86137;SDS011;76796;49.056;15.810;2024-03-08T02:55:37;29.35;;;15.35;;
86137;SDS011;76796;49.056;15.810;2024-03-08T02:58:04;31.92;;;15.60;;
86137;SDS011;76796;49.056;15.810;2024-03-08T03:00:30;30.98;;;14.77;;
86137;SDS011;76796;49.056;15.810;2024-03-08T03:02:59;33.42;;;15.63;;
86137;SDS011;76796;49.056;15.810;2024-03-08T03:05:34;30.48;;;15.07;;
86137;SDS011;76796;49.056;15.810;2024-03-08T03:07:59;33.88;;;17.35;;
86137;SDS011;76796;49.056;15.810;2024-03-08T03:10:25;32.90;;;15.07;;
86137;SDS011;76796;49.056;15.810;2024-03-08T03:12:57;30.27;;;15.32;;
86137;SDS011;76796;49.056;15.810;2024-03-08T03:15:30;32.78;;;16.65;;
86137;SDS011;76796;49.056;15.810;2024-03-08T03:17:56;31.38;;;15.32;;
86137;SDS011;76796;49.056;15.810;2024-03-08T03:20:21;32.17;;;16.35;;
86137;SDS011;76796;49.056;15.810;2024-03-08T03:23:04;31.35;;;15.35;;
86137;SDS011;76796;49.056;15.810;2024-03-08T03:25:30;31.98;;;16.55;;
86137;SDS011;76796;49.056;15.810;2024-03-08T03:28:00;29.35;;;16.05;;
86137;SDS011;76796;49.056;15.810;2024-03-08T03:30:31;29.60;;;16.05;;
86137;SDS011;76796;49.056;15.810;2024-03-08T03:33:02;28.08;;;14.73;;
86137;SDS011;76796;49.056;15.810;2024-03-08T03:35:32;32.78;;;16.05;;
86137;SDS011;76796;49.056;15.810;2024-03-08T03:37:58;31.48;;;15.73;;
86137;SDS011;76796;49.056;15.810;2024-03-08T03:40:40;31.27;;;14.88;;
86137;SDS011;76796;49.056;15.810;2024-03-08T03:43:06;36.67;;;17.63;;
86137;SDS011;76796;49.056;15.810;2024-03-08T03:45:32;31.25;;;16.05;;
86137;SDS011;76796;49.056;15.810;2024-03-08T03:48:01;36.50;;;16.88;;
86137;SDS011;76796;49.056;15.810;2024-03-08T03:50:31;33.95;;;16.83;;
86137;SDS011;76796;49.056;15.810;2024-03-08T03:52:59;33.22;;;16.73;;
86137;SDS011;76796;49.056;15.810;2024-03-08T03:55:25;34.42;;;16.13;;
86137;SDS011;76796;49.056;15.810;2024-03-08T03:57:59;32.20;;;15.20;;
86137;SDS011;76796;49.056;15.810;2024-03-08T04:00:26;33.55;;;17.80;;
86137;SDS011;76796;49.056;15.810;2024-03-08T04:02:53;29.77;;;15.82;;
86137;SDS011;76796;49.056;15.810;2024-03-08T04:05:21;37.10;;;17.63;;
86137;SDS011;76796;49.056;15.810;2024-03-08T04:07:48;36.35;;;16.52;;
86137;SDS011;76796;49.056;15.810;2024-03-08T04:10:13;33.33;;;15.45;;
86137;SDS011;76796;49.056;15.810;2024-03-08T04:12:39;41.08;;;17.65;;
86137;SDS011;76796;49.056;15.810;2024-03-08T04:15:12;39.63;;;17.80;;
86137;SDS011;76796;49.056;15.810;2024-03-08T04:17:37;34.50;;;17.17;;
86137;SDS011;76796;49.056;15.810;2024-03-08T04:20:03;35.55;;;17.25;;
86137;SDS011;76796;49.056;15.810;2024-03-08T04:22:37;39.72;;;18.10;;
86137;SDS011;76796;49.056;15.810;2024-03-08T04:25:03;34.92;;;16.95;;
86137;SDS011;76796;49.056;15.810;2024-03-08T04:27:32;32.58;;;16.92;;
86137;SDS011;76796;49.056;15.810;2024-03-08T04:29:59;31.88;;;15.60;;
86137;SDS011;76796;49.056;15.810;2024-03-08T04:32:32;36.20;;;16.90;;
86137;SDS011;76796;49.056;15.810;2024-03-08T04:35:00;33.75;;;16.63;;
86137;SDS011;76796;49.056;15.810;2024-03-08T04:37:31;32.20;;;15.77;;
86137;SDS011;76796;49.056;15.810;2024-03-08T04:39:56;33.53;;;17.02;;
86137;SDS011;76796;49.056;15.810;2024-03-08T04:42:22;33.97;;;17.58;;
86137;SDS011;76796;49.056;15.810;2024-03-08T04:44:49;37.03;;;17.92;;
86137;SDS011;76796;49.056;15.810;2024-03-08T04:47:14;34.20;;;16.65;;
86137;SDS011;76796;49.056;15.810;2024-03-08T04:49:47;35.55;;;17.60;;
86137;SDS011;76796;49.056;15.810;2024-03-08T04:52:12;37.38;;;16.85;;
86137;SDS011;76796;49.056;15.810;2024-03-08T04:54:38;36.58;;;16.80;;
86137;SDS011;76796;49.056;15.810;2024-03-08T04:57:04;30.55;;;14.80;;
86137;SDS011;76796;49.056;15.810;2024-03-08T04:59:30;33.10;;;16.83;;
86137;SDS011;76796;49.056;15.810;2024-03-08T05:01:56;34.60;;;16.45;;
86137;SDS011;76796;49.056;15.810;2024-03-08T05:04:22;38.28;;;19.05;;
86137;SDS011;76796;49.056;15.810;2024-03-08T05:06:54;31.38;;;15.73;;
86137;SDS011;76796;49.056;15.810;2024-03-08T05:09:20;34.63;;;17.08;;
86137;SDS011;76796;49.056;15.810;2024-03-08T05:11:48;34.70;;;17.08;;
86137;SDS011;76796;49.056;15.810;2024-03-08T05:14:21;31.00;;;15.70;;
86137;SDS011;76796;49.056;15.810;2024-03-08T05:16:53;39.55;;;18.10;;
86137;SDS011;76796;49.056;15.810;2024-03-08T05:19:19;35.38;;;17.30;;
86137;SDS011;76796;49.056;15.810;2024-03-08T05:21:46;33.58;;;16.70;;
86137;SDS011;76796;49.056;15.810;2024-03-08T05:24:19;31.17;;;15.63;;
86137;SDS011;76796;49.056;15.810;2024-03-08T05:26:45;35.85;;;18.25;;
86137;SDS011;76796;49.056;15.810;2024-03-08T05:29:14;39.88;;;17.52;;
86137;SDS011;76796;49.056;15.810;2024-03-08T05:31:47;32.83;;;17.45;;
86137;SDS011;76796;49.056;15.810;2024-03-08T05:34:20;41.05;;;18.55;;
86137;SDS011;76796;49.056;15.810;2024-03-08T05:36:47;39.25;;;17.50;;
86137;SDS011;76796;49.056;15.810;2024-03-08T05:39:16;38.25;;;18.60;;
86137;SDS011;76796;49.056;15.810;2024-03-08T05:41:49;35.97;;;17.27;;
86137;SDS011;76796;49.056;15.810;2024-03-08T05:44:16;36.60;;;17.67;;
86137;SDS011;76796;49.056;15.810;2024-03-08T05:49:11;35.28;;;17.77;;
86137;SDS011;76796;49.056;15.810;2024-03-08T05:51:37;42.60;;;20.02;;
86137;SDS011;76796;49.056;15.810;2024-03-08T05:54:08;35.28;;;17.52;;
86137;SDS011;76796;49.056;15.810;2024-03-08T05:56:38;38.33;;;18.08;;
86137;SDS011;76796;49.056;15.810;2024-03-08T05:59:14;36.28;;;15.85;;
86137;SDS011;76796;49.056;15.810;2024-03-08T06:01:40;36.75;;;18.75;;
86137;SDS011;76796;49.056;15.810;2024-03-08T06:04:09;42.45;;;19.95;;
86137;SDS011;76796;49.056;15.810;2024-03-08T06:06:38;34.55;;;18.08;;
86137;SDS011;76796;49.056;15.810;2024-03-08T06:09:03;39.47;;;18.27;;
86137;SDS011;76796;49.056;15.810;2024-03-08T06:11:45;34.80;;;17.48;;
86137;SDS011;76796;49.056;15.810;2024-03-08T06:14:10;40.45;;;18.85;;
86137;SDS011;76796;49.056;15.810;2024-03-08T06:16:43;35.53;;;17.80;;
86137;SDS011;76796;49.056;15.810;2024-03-08T06:19:09;39.15;;;19.77;;
86137;SDS011;76796;49.056;15.810;2024-03-08T06:21:35;37.15;;;16.55;;
86137;SDS011;76796;49.056;15.810;2024-03-08T06:24:01;40.22;;;19.33;;
86137;SDS011;76796;49.056;15.810;2024-03-08T06:26:29;35.40;;;18.55;;
86137;SDS011;76796;49.056;15.810;2024-03-08T06:28:54;37.63;;;18.25;;
86137;SDS011;76796;49.056;15.810;2024-03-08T06:31:21;39.25;;;18.92;;
86137;SDS011;76796;49.056;15.810;2024-03-08T06:33:53;38.97;;;19.13;;
86137;SDS011;76796;49.056;15.810;2024-03-08T06:36:23;39.03;;;19.27;;
86137;SDS011;76796;49.056;15.810;2024-03-08T06:38:49;39.03;;;19.15;;
86137;SDS011;76796;49.056;15.810;2024-03-08T06:41:15;36.20;;;18.88;;
86137;SDS011;76796;49.056;15.810;2024-03-08T06:43:44;36.85;;;19.08;;
86137;SDS011;76796;49.056;15.810;2024-03-08T06:46:10;38.00;;;18.55;;
86137;SDS011;76796;49.056;15.810;2024-03-08T06:48:38;40.05;;;18.67;;
86137;SDS011;76796;49.056;15.810;2024-03-08T06:51:11;37.13;;;18.85;;
86137;SDS011;76796;49.056;15.810;2024-03-08T06:53:37;43.38;;;20.52;;
86137;SDS011;76796;49.056;15.810;2024-03-08T06:56:03;41.35;;;20.13;;
86137;SDS011;76796;49.056;15.810;2024-03-08T06:58:36;36.30;;;18.35;;
86137;SDS011;76796;49.056;15.810;2024-03-08T07:01:05;44.42;;;19.10;;
86137;SDS011;76796;49.056;15.810;2024-03-08T07:03:51;37.90;;;18.40;;
86137;SDS011;76796;49.056;15.810;2024-03-08T07:06:24;36.83;;;19.20;;
86137;SDS011;76796;49.056;15.810;2024-03-08T07:08:51;35.78;;;18.73;;
86137;SDS011;76796;49.056;15.810;2024-03-08T07:11:19;42.30;;;19.00;;
86137;SDS011;76796;49.056;15.810;2024-03-08T07:13:45;38.35;;;19.13;;
86137;SDS011;76796;49.056;15.810;2024-03-08T07:16:17;43.63;;;20.35;;
86137;SDS011;76796;49.056;15.810;2024-03-08T07:18:44;39.75;;;19.58;;
86137;SDS011;76796;49.056;15.810;2024-03-08T07:21:10;48.67;;;25.23;;
86137;SDS011;76796;49.056;15.810;2024-03-08T07:23:46;53.25;;;28.13;;
86137;SDS011;76796;49.056;15.810;2024-03-08T07:26:21;56.20;;;28.05;;
86137;SDS011;76796;49.056;15.810;2024-03-08T07:28:48;47.47;;;24.55;;
86137;SDS011;76796;49.056;15.810;2024-03-08T07:31:15;47.30;;;23.10;;
86137;SDS011;76796;49.056;15.810;2024-03-08T07:33:52;40.78;;;19.83;;
86137;SDS011;76796;49.056;15.810;2024-03-08T07:36:18;39.17;;;19.92;;
86137;SDS011;76796;49.056;15.810;2024-03-08T07:38:51;39.83;;;19.42;;
86137;SDS011;76796;49.056;15.810;2024-03-08T07:41:18;39.83;;;19.42;;
86137;SDS011;76796;49.056;15.810;2024-03-08T07:43:45;36.75;;;19.80;;
86137;SDS011;76796;49.056;15.810;2024-03-08T07:46:13;39.05;;;18.98;;
86137;SDS011;76796;49.056;15.810;2024-03-08T07:48:39;44.70;;;20.63;;
86137;SDS011;76796;49.056;15.810;2024-03-08T07:51:05;41.28;;;20.73;;
86137;SDS011;76796;49.056;15.810;2024-03-08T07:53:35;40.08;;;20.60;;
86137;SDS011;76796;49.056;15.810;2024-03-08T07:56:08;36.30;;;18.27;;
86137;SDS011;76796;49.056;15.810;2024-03-08T07:58:39;41.42;;;21.00;;
86137;SDS011;76796;49.056;15.810;2024-03-08T08:01:06;38.95;;;18.13;;
86137;SDS011;76796;49.056;15.810;2024-03-08T08:03:35;36.50;;;18.30;;
86137;SDS011;76796;49.056;15.810;2024-03-08T08:06:03;40.47;;;19.00;;
86137;SDS011;76796;49.056;15.810;2024-03-08T08:08:34;42.05;;;21.35;;
86137;SDS011;76796;49.056;15.810;2024-03-08T08:11:06;44.28;;;20.27;;
86137;SDS011;76796;49.056;15.810;2024-03-08T08:13:46;39.40;;;20.75;;
86137;SDS011;76796;49.056;15.810;2024-03-08T08:16:22;40.78;;;20.27;;
86137;SDS011;76796;49.056;15.810;2024-03-08T08:18:48;39.97;;;19.58;;
86137;SDS011;76796;49.056;15.810;2024-03-08T08:21:17;39.30;;;19.10;;
86137;SDS011;76796;49.056;15.810;2024-03-08T08:23:44;41.35;;;21.15;;
86137;SDS011;76796;49.056;15.810;2024-03-08T08:26:10;43.20;;;22.25;;
86137;SDS011;76796;49.056;15.810;2024-03-08T08:28:36;47.13;;;21.98;;
86137;SDS011;76796;49.056;15.810;2024-03-08T08:31:11;41.85;;;20.40;;
86137;SDS011;76796;49.056;15.810;2024-03-08T08:33:40;43.22;;;22.23;;
86137;SDS011;76796;49.056;15.810;2024-03-08T08:36:06;45.50;;;21.67;;
86137;SDS011;76796;49.056;15.810;2024-03-08T08:38:33;41.90;;;20.35;;
86137;SDS011;76796;49.056;15.810;2024-03-08T08:40:59;49.75;;;22.73;;
86137;SDS011;76796;49.056;15.810;2024-03-08T08:43:25;41.38;;;19.35;;
86137;SDS011;76796;49.056;15.810;2024-03-08T08:45:51;43.80;;;21.73;;
86137;SDS011;76796;49.056;15.810;2024-03-08T08:50:53;45.58;;;21.27;;
86137;SDS011;76796;49.056;15.810;2024-03-08T08:53:21;45.05;;;20.75;;
86137;SDS011;76796;49.056;15.810;2024-03-08T08:55:48;50.38;;;25.90;;
86137;SDS011;76796;49.056;15.810;2024-03-08T08:58:15;45.05;;;23.42;;
86137;SDS011;76796;49.056;15.810;2024-03-08T09:00:45;47.92;;;23.17;;
86137;SDS011;76796;49.056;15.810;2024-03-08T09:03:13;46.17;;;23.92;;
86137;SDS011;76796;49.056;15.810;2024-03-08T09:05:45;48.80;;;24.42;;
86137;SDS011;76796;49.056;15.810;2024-03-08T09:08:11;45.97;;;23.48;;
86137;SDS011;76796;49.056;15.810;2024-03-08T09:10:38;45.00;;;23.17;;
86137;SDS011;76796;49.056;15.810;2024-03-08T09:13:12;43.67;;;20.38;;
86137;SDS011;76796;49.056;15.810;2024-03-08T09:15:44;46.35;;;21.73;;
86137;SDS011;76796;49.056;15.810;2024-03-08T09:18:10;54.03;;;27.73;;
86137;SDS011;76796;49.056;15.810;2024-03-08T09:20:36;49.03;;;25.05;;
86137;SDS011;76796;49.056;15.810;2024-03-08T09:23:08;51.75;;;25.48;;
86137;SDS011;76796;49.056;15.810;2024-03-08T09:25:36;42.13;;;21.73;;
86137;SDS011;76796;49.056;15.810;2024-03-08T09:28:08;46.65;;;21.73;;
86137;SDS011;76796;49.056;15.810;2024-03-08T09:30:34;47.97;;;24.05;;
86137;SDS011;76796;49.056;15.810;2024-03-08T09:33:01;48.95;;;23.77;;
86137;SDS011;76796;49.056;15.810;2024-03-08T09:35:32;43.25;;;22.30;;
86137;SDS011;76796;49.056;15.810;2024-03-08T09:38:02;53.53;;;25.38;;
86137;SDS011;76796;49.056;15.810;2024-03-08T09:40:36;49.75;;;24.25;;
86137;SDS011;76796;49.056;15.810;2024-03-08T09:43:02;51.30;;;25.55;;
86137;SDS011;76796;49.056;15.810;2024-03-08T09:45:34;46.45;;;22.40;;
86137;SDS011;76796;49.056;15.810;2024-03-08T09:48:10;47.45;;;24.27;;
86137;SDS011;76796;49.056;15.810;2024-03-08T09:50:42;50.38;;;26.08;;
86137;SDS011;76796;49.056;15.810;2024-03-08T09:53:09;52.03;;;23.33;;
86137;SDS011;76796;49.056;15.810;2024-03-08T09:55:45;44.90;;;24.63;;
86137;SDS011;76796;49.056;15.810;2024-03-08T09:58:13;39.40;;;21.30;;
86137;SDS011;76796;49.056;15.810;2024-03-08T10:01:03;51.00;;;25.00;;
86137;SDS011;76796;49.056;15.810;2024-03-08T10:03:37;55.42;;;28.70;;
86137;SDS011;76796;49.056;15.810;2024-03-08T10:06:04;59.03;;;30.25;;
86137;SDS011;76796;49.056;15.810;2024-03-08T10:08:32;68.65;;;33.10;;
86137;SDS011;76796;49.056;15.810;2024-03-08T10:11:19;56.20;;;29.80;;
86137;SDS011;76796;49.056;15.810;2024-03-08T10:14:07;55.25;;;29.67;;
86137;SDS011;76796;49.056;15.810;2024-03-08T10:16:37;63.35;;;33.42;;
86137;SDS011;76796;49.056;15.810;2024-03-08T10:19:08;55.83;;;27.27;;
86137;SDS011;76796;49.056;15.810;2024-03-08T10:21:46;59.63;;;30.33;;
86137;SDS011;76796;49.056;15.810;2024-03-08T10:24:13;56.55;;;26.70;;
86137;SDS011;76796;49.056;15.810;2024-03-08T10:26:46;54.92;;;26.38;;
86137;SDS011;76796;49.056;15.810;2024-03-08T10:29:18;49.28;;;25.27;;
86137;SDS011;76796;49.056;15.810;2024-03-08T10:31:45;52.33;;;23.80;;
86137;SDS011;76796;49.056;15.810;2024-03-08T10:34:12;47.63;;;23.05;;
86137;SDS011;76796;49.056;15.810;2024-03-08T10:36:42;49.25;;;22.30;;
86137;SDS011;76796;49.056;15.810;2024-03-08T10:41:44;57.72;;;25.70;;
86137;SDS011;76796;49.056;15.810;2024-03-08T10:47:26;55.10;;;24.60;;
86137;SDS011;76796;49.056;15.810;2024-03-08T10:50:10;52.53;;;24.63;;
86137;SDS011;76796;49.056;15.810;2024-03-08T10:52:45;60.20;;;26.23;;
86137;SDS011;76796;49.056;15.810;2024-03-08T10:55:10;52.00;;;25.13;;
86137;SDS011;76796;49.056;15.810;2024-03-08T10:57:39;57.35;;;26.02;;
86137;SDS011;76796;49.056;15.810;2024-03-08T11:00:16;51.47;;;25.20;;
86137;SDS011;76796;49.056;15.810;2024-03-08T11:03:04;50.90;;;23.77;;
86137;SDS011;76796;49.056;15.810;2024-03-08T11:08:25;50.03;;;22.63;;
86137;SDS011;76796;49.056;15.810;2024-03-08T11:10:50;54.83;;;25.25;;
86137;SDS011;76796;49.056;15.810;2024-03-08T11:21:19;56.42;;;26.25;;
86137;SDS011;76796;49.056;15.810;2024-03-08T11:24:06;49.63;;;23.48;;
86137;SDS011;76796;49.056;15.810;2024-03-08T11:26:33;53.03;;;27.23;;
86137;SDS011;76796;49.056;15.810;2024-03-08T11:32:27;48.08;;;23.67;;
86137;SDS011;76796;49.056;15.810;2024-03-08T11:34:54;59.83;;;27.17;;
86137;SDS011;76796;49.056;15.810;2024-03-08T11:37:21;53.05;;;26.70;;
86137;SDS011;76796;49.056;15.810;2024-03-08T11:39:52;54.17;;;25.10;;
86137;SDS011;76796;49.056;15.810;2024-03-08T11:42:24;61.80;;;28.58;;
86137;SDS011;76796;49.056;15.810;2024-03-08T11:44:51;53.80;;;24.33;;
86137;SDS011;76796;49.056;15.810;2024-03-08T11:47:24;53.72;;;25.30;;
86137;SDS011;76796;49.056;15.810;2024-03-08T11:49:51;50.80;;;25.23;;
86137;SDS011;76796;49.056;15.810;2024-03-08T11:52:18;55.47;;;25.95;;
86137;SDS011;76796;49.056;15.810;2024-03-08T11:54:52;50.75;;;24.58;;
86137;SDS011;76796;49.056;15.810;2024-03-08T11:57:21;62.83;;;30.27;;
86137;SDS011;76796;49.056;15.810;2024-03-08T11:59:55;55.58;;;28.05;;
86137;SDS011;76796;49.056;15.810;2024-03-08T12:02:39;58.13;;;26.95;;
86137;SDS011;76796;49.056;15.810;2024-03-08T12:05:07;57.97;;;27.45;;
86137;SDS011;76796;49.056;15.810;2024-03-08T12:07:35;54.28;;;25.48;;
86137;SDS011;76796;49.056;15.810;2024-03-08T12:10:14;60.50;;;29.27;;
86137;SDS011;76796;49.056;15.810;2024-03-08T12:12:47;57.75;;;28.35;;
86137;SDS011;76796;49.056;15.810;2024-03-08T12:15:31;61.63;;;29.83;;
86137;SDS011;76796;49.056;15.810;2024-03-08T12:18:05;59.42;;;26.73;;
86137;SDS011;76796;49.056;15.810;2024-03-08T12:20:32;61.15;;;27.95;;
86137;SDS011;76796;49.056;15.810;2024-03-08T12:22:58;62.78;;;31.02;;
86137;SDS011;76796;49.056;15.810;2024-03-08T12:25:29;64.53;;;30.15;;
86137;SDS011;76796;49.056;15.810;2024-03-08T12:27:56;65.90;;;30.08;;
86137;SDS011;76796;49.056;15.810;2024-03-08T12:30:33;56.55;;;27.23;;
86137;SDS011;76796;49.056;15.810;2024-03-08T12:33:02;82.68;;;39.50;;
86137;SDS011;76796;49.056;15.810;2024-03-08T12:35:34;70.00;;;29.85;;
86137;SDS011;76796;49.056;15.810;2024-03-08T12:38:00;74.28;;;33.13;;
86137;SDS011;76796;49.056;15.810;2024-03-08T12:40:29;72.10;;;32.65;;
86137;SDS011;76796;49.056;15.810;2024-03-08T12:43:00;56.83;;;27.17;;
86137;SDS011;76796;49.056;15.810;2024-03-08T12:45:29;64.32;;;29.52;;
86137;SDS011;76796;49.056;15.810;2024-03-08T12:47:55;60.83;;;28.45;;
86137;SDS011;76796;49.056;15.810;2024-03-08T12:50:21;48.83;;;23.70;;
86137;SDS011;76796;49.056;15.810;2024-03-08T12:52:55;47.28;;;22.33;;
86137;SDS011;76796;49.056;15.810;2024-03-08T12:55:21;55.20;;;24.38;;
86137;SDS011;76796;49.056;15.810;2024-03-08T12:57:47;52.30;;;24.67;;
86137;SDS011;76796;49.056;15.810;2024-03-08T13:00:18;52.97;;;27.00;;
86137;SDS011;76796;49.056;15.810;2024-03-08T13:02:48;58.20;;;27.45;;
86137;SDS011;76796;49.056;15.810;2024-03-08T13:05:20;53.85;;;25.83;;
86137;SDS011;76796;49.056;15.810;2024-03-08T13:07:46;47.85;;;23.10;;
86137;SDS011;76796;49.056;15.810;2024-03-08T13:10:18;47.85;;;24.50;;
86137;SDS011;76796;49.056;15.810;2024-03-08T13:12:45;48.65;;;22.60;;
86137;SDS011;76796;49.056;15.810;2024-03-08T13:15:18;48.53;;;23.00;;
86137;SDS011;76796;49.056;15.810;2024-03-08T13:20:13;44.05;;;22.23;;
86137;SDS011;76796;49.056;15.810;2024-03-08T13:22:43;48.58;;;23.60;;
86137;SDS011;76796;49.056;15.810;2024-03-08T13:25:10;46.95;;;22.65;;
86137;SDS011;76796;49.056;15.810;2024-03-08T13:27:45;45.70;;;21.98;;
86137;SDS011;76796;49.056;15.810;2024-03-08T13:30:11;48.72;;;22.45;;
86137;SDS011;76796;49.056;15.810;2024-03-08T13:32:45;51.13;;;22.45;;
86137;SDS011;76796;49.056;15.810;2024-03-08T13:35:11;54.97;;;24.35;;
86137;SDS011;76796;49.056;15.810;2024-03-08T13:37:42;45.95;;;21.10;;
86137;SDS011;76796;49.056;15.810;2024-03-08T13:40:10;49.67;;;22.80;;
86137;SDS011;76796;49.056;15.810;2024-03-08T13:42:41;53.13;;;22.50;;
86137;SDS011;76796;49.056;15.810;2024-03-08T13:45:15;41.05;;;21.45;;
86137;SDS011;76796;49.056;15.810;2024-03-08T13:47:46;44.70;;;21.75;;
86137;SDS011;76796;49.056;15.810;2024-03-08T13:50:12;44.53;;;21.48;;
86137;SDS011;76796;49.056;15.810;2024-03-08T13:52:39;48.35;;;22.23;;
86137;SDS011;76796;49.056;15.810;2024-03-08T13:55:05;47.72;;;23.55;;
86137;SDS011;76796;49.056;15.810;2024-03-08T13:57:33;44.65;;;22.52;;
86137;SDS011;76796;49.056;15.810;2024-03-08T14:00:00;41.28;;;20.52;;
86137;SDS011;76796;49.056;15.810;2024-03-08T14:02:35;41.28;;;20.42;;
86137;SDS011;76796;49.056;15.810;2024-03-08T14:05:01;41.72;;;20.30;;
86137;SDS011;76796;49.056;15.810;2024-03-08T14:07:29;40.30;;;21.88;;
86137;SDS011;76796;49.056;15.810;2024-03-08T14:09:55;38.47;;;20.73;;
86137;SDS011;76796;49.056;15.810;2024-03-08T14:12:21;47.50;;;24.55;;
86137;SDS011;76796;49.056;15.810;2024-03-08T14:14:47;38.55;;;19.25;;
86137;SDS011;76796;49.056;15.810;2024-03-08T14:17:18;37.47;;;17.88;;
86137;SDS011;76796;49.056;15.810;2024-03-08T14:19:50;37.13;;;17.35;;
86137;SDS011;76796;49.056;15.810;2024-03-08T14:22:16;33.03;;;16.95;;
86137;SDS011;76796;49.056;15.810;2024-03-08T14:24:41;37.70;;;19.65;;
86137;SDS011;76796;49.056;15.810;2024-03-08T14:27:08;38.47;;;17.05;;
86137;SDS011;76796;49.056;15.810;2024-03-08T14:29:35;40.72;;;19.08;;
86137;SDS011;76796;49.056;15.810;2024-03-08T14:32:01;39.67;;;20.70;;
86137;SDS011;76796;49.056;15.810;2024-03-08T14:34:29;38.13;;;19.75;;
86137;SDS011;76796;49.056;15.810;2024-03-08T14:37:01;36.92;;;18.63;;
86137;SDS011;76796;49.056;15.810;2024-03-08T14:39:31;40.58;;;21.17;;
86137;SDS011;76796;49.056;15.810;2024-03-08T14:42:00;41.35;;;20.00;;
86137;SDS011;76796;49.056;15.810;2024-03-08T14:44:29;39.92;;;17.92;;
86137;SDS011;76796;49.056;15.810;2024-03-08T14:46:55;33.88;;;18.17;;
86137;SDS011;76796;49.056;15.810;2024-03-08T14:49:22;34.83;;;17.42;;
86137;SDS011;76796;49.056;15.810;2024-03-08T14:51:47;40.83;;;20.80;;